Time;durP1;ratioP1;P1;durP2;ratioP2;P2;SDS_P1;SDS_P2;PMS_P1;PMS_P2;Temp;Humidity;BMP_temperature;BMP_pressure;BME280_temperature;BME280_humidity;BME280_pressure;Samples;Min_cycle;Max_cycle;Signal;HPM_P1;HPM_P2
2022/08/04 00:01:10;;;;;;;;;;;25.50;64.40;;;;;;5030318;28;20116;-75
2022/08/04 00:03:49;;;;;;;4.38;2.30;;;25.50;64.30;;;;;;5014493;28;20371;-74
2022/08/04 00:06:50;;;;;;;4.50;2.85;;;25.50;64.50;;;;;;5011235;28;20068;-74
2022/08/04 00:09:21;;;;;;;4.55;2.42;;;25.50;64.50;;;;;;5011049;28;20042;-75
2022/08/04 00:11:47;;;;;;;5.68;2.10;;;25.50;64.50;;;;;;5011294;28;20018;-74
2022/08/04 00:14:14;;;;;;;3.10;2.30;;;25.50;64.50;;;;;;5011330;28;20085;-75
2022/08/04 00:16:40;;;;;;;3.13;2.25;;;25.50;64.50;;;;;;5011181;28;20125;-75
2022/08/04 00:19:11;;;;;;;2.20;2.00;;;25.50;64.60;;;;;;5012969;28;20058;-74
2022/08/04 00:21:38;;;;;;;3.95;2.20;;;25.50;64.50;;;;;;5015010;28;20018;-75
2022/08/04 00:24:04;;;;;;;5.22;2.30;;;25.50;64.60;;;;;;5014606;28;20096;-75
2022/08/04 00:26:30;;;;;;;3.33;2.50;;;25.50;64.50;;;;;;5014961;28;20443;-74
2022/08/04 00:28:56;;;;;;;4.32;2.45;;;25.50;64.50;;;;;;5014651;28;20053;-75
2022/08/04 00:31:22;;;;;;;3.83;2.47;;;25.50;64.50;;;;;;5014782;28;20029;-75
2022/08/04 00:33:48;;;;;;;2.38;2.10;;;25.50;64.50;;;;;;4998284;28;20026;-74
2022/08/04 00:36:13;;;;;;;3.92;2.65;;;25.50;64.50;;;;;;5014742;28;20056;-74
2022/08/04 00:38:42;;;;;;;3.00;2.38;;;25.50;64.50;;;;;;5014477;28;20022;-75
2022/08/04 00:41:17;;;;;;;2.85;2.10;;;25.50;65.60;;;;;;5014632;28;20018;-74
2022/08/04 00:43:51;;;;;;;2.58;2.00;;;25.50;64.50;;;;;;5014601;28;20101;-74
2022/08/04 00:46:16;;;;;;;3.33;2.33;;;25.50;64.50;;;;;;5015616;28;20049;-74
2022/08/04 00:48:57;;;;;;;2.95;2.10;;;25.50;64.50;;;;;;5015776;28;20053;-74
2022/08/04 00:51:53;;;;;;;3.10;2.38;;;25.50;64.60;;;;;;5015627;28;20029;-74
2022/08/04 00:54:49;;;;;;;3.10;2.38;;;25.50;64.50;;;;;;5021365;28;20033;-74
2022/08/04 00:57:37;;;;;;;3.30;2.22;;;25.50;64.50;;;;;;5034096;28;20036;-74
2022/08/04 01:00:11;;;;;;;2.90;2.20;;;25.50;64.60;;;;;;5033970;28;20021;-74
2022/08/04 01:02:49;;;;;;;3.45;2.67;;;25.50;64.60;;;;;;5017859;28;20025;-75
2022/08/04 01:05:36;;;;;;;2.58;2.17;;;25.50;64.70;;;;;;5015304;28;20079;-74
2022/08/04 01:08:14;;;;;;;3.97;1.90;;;25.50;64.60;;;;;;5013905;28;20026;-75
2022/08/04 01:10:55;;;;;;;2.40;2.08;;;25.50;64.70;;;;;;5015214;28;20618;-74
2022/08/04 01:13:25;;;;;;;5.32;2.72;;;25.50;64.80;;;;;;5014985;28;20030;-74
2022/08/04 01:15:53;;;;;;;2.72;2.10;;;25.50;64.60;;;;;;5014004;28;20038;-74
2022/08/04 01:18:40;;;;;;;2.58;2.05;;;25.50;64.80;;;;;;5013737;28;20021;-74
2022/08/04 01:21:33;;;;;;;3.83;2.25;;;25.50;64.70;;;;;;5014507;28;20060;-74
2022/08/04 01:24:17;;;;;;;;;;;25.50;64.80;;;;;;5015264;28;20061;-74
2022/08/04 01:26:53;;;;;;;4.05;2.47;;;25.50;64.80;;;;;;5014971;28;19932;-73
2022/08/04 01:29:21;;;;;;;2.28;1.98;;;25.50;65.10;;;;;;5012869;28;20056;-73
2022/08/04 01:31:56;;;;;;;2.63;2.00;;;25.50;65.20;;;;;;5013585;28;20479;-73
2022/08/04 01:34:22;;;;;;;3.58;2.15;;;25.50;65.00;;;;;;5013482;28;20084;-73
2022/08/04 01:37:10;;;;;;;4.50;1.98;;;25.50;65.00;;;;;;5013357;28;20049;-74
2022/08/04 01:39:41;;;;;;;2.80;1.98;;;25.50;65.10;;;;;;5013565;28;20025;-74
2022/08/04 01:42:09;;;;;;;2.30;1.90;;;25.50;65.30;;;;;;5013499;28;20029;-74
2022/08/04 01:44:35;;;;;;;4.80;2.15;;;25.50;65.20;;;;;;5013452;28;20257;-73
2022/08/04 01:47:00;;;;;;;4.18;2.30;;;25.50;65.30;;;;;;5013140;28;20041;-73
2022/08/04 01:49:30;;;;;;;3.15;2.17;;;25.50;65.30;;;;;;5014559;28;20025;-73
2022/08/04 01:51:56;;;;;;;4.18;2.17;;;25.50;65.30;;;;;;5013019;28;20030;-74
2022/08/04 01:54:21;;;;;;;2.95;2.20;;;25.50;65.30;;;;;;5019448;28;20047;-74
2022/08/04 01:56:48;;;;;;;4.15;2.13;;;25.50;65.10;;;;;;5033054;28;20049;-74
2022/08/04 01:59:16;;;;;;;3.35;2.15;;;25.50;65.20;;;;;;5032800;28;20032;-74
2022/08/04 02:01:42;;;;;;;3.20;2.20;;;25.50;65.20;;;;;;5024184;28;20025;-74
2022/08/04 02:04:14;;;;;;;4.80;2.40;;;25.50;65.30;;;;;;5013016;28;20392;-74
2022/08/04 02:06:40;;;;;;;;;;;25.50;65.10;;;;;;5013265;28;20026;-74
2022/08/04 02:09:15;;;;;;;3.45;2.08;;;25.50;65.20;;;;;;5014004;28;20430;-74
2022/08/04 02:11:42;;;;;;;3.65;2.33;;;25.50;65.20;;;;;;5013987;28;20026;-74
2022/08/04 02:14:44;;;;;;;3.25;2.10;;;25.50;65.30;;;;;;5012845;28;20033;-74
2022/08/04 02:17:10;;;;;;;3.72;1.88;;;25.50;65.30;;;;;;5012981;28;20029;-74
2022/08/04 02:19:51;;;;;;;1.88;1.52;;;25.50;65.30;;;;;;5012576;28;20365;-74
2022/08/04 02:22:17;;;;;;;5.93;1.83;;;25.50;65.30;;;;;;5012965;28;20057;-74
2022/08/04 02:24:45;;;;;;;4.18;2.10;;;25.50;65.30;;;;;;5012636;28;20025;-74
2022/08/04 02:27:12;;;;;;;2.60;1.90;;;25.50;65.30;;;;;;5013710;28;20021;-73
2022/08/04 02:30:08;;;;;;;3.28;1.92;;;25.50;65.30;;;;;;5012634;28;20046;-74
2022/08/04 02:32:38;;;;;;;3.75;1.80;;;25.50;65.30;;;;;;5008063;28;20057;-74
2022/08/04 02:35:12;;;;;;;3.45;1.98;;;25.50;65.30;;;;;;5012294;28;20066;-74
2022/08/04 02:37:41;;;;;;;3.95;2.00;;;25.50;65.30;;;;;;5013843;28;20050;-74
2022/08/04 02:40:06;;;;;;;1.80;1.70;;;25.50;65.20;;;;;;5012446;28;20026;-74
2022/08/04 02:42:32;;;;;;;2.63;2.10;;;25.50;65.20;;;;;;5011550;28;20141;-74
2022/08/04 02:44:59;;;;;;;2.88;2.05;;;25.40;65.20;;;;;;5012351;28;20018;-74
2022/08/04 02:47:25;;;;;;;1.90;1.80;;;25.40;65.30;;;;;;5012368;28;20106;-74
2022/08/04 02:49:51;;;;;;;6.03;2.10;;;25.50;65.20;;;;;;5012000;28;20018;-75
2022/08/04 02:52:20;;;;;;;2.53;2.00;;;25.50;65.20;;;;;;5013280;28;20469;-73
2022/08/04 02:54:51;;;;;;;3.40;1.70;;;25.40;65.20;;;;;;5022089;28;20056;-74
2022/08/04 02:57:16;;;;;;;2.40;2.20;;;25.50;65.20;;;;;;5031777;28;20040;-74
2022/08/04 03:00:08;;;;;;;2.75;2.00;;;25.40;65.20;;;;;;5031897;28;20029;-73
2022/08/04 03:02:50;;;;;;;3.60;2.00;;;25.40;65.00;;;;;;5016916;28;20026;-74
2022/08/04 03:05:20;;;;;;;2.80;2.10;;;25.50;65.30;;;;;;5013075;28;20030;-73
2022/08/04 03:08:04;;;;;;;4.70;2.20;;;25.40;65.20;;;;;;5011836;28;20029;-73
2022/08/04 03:10:54;;;;;;;2.47;1.88;;;25.50;65.20;;;;;;5013208;28;20026;-73
2022/08/04 03:13:41;;;;;;;4.18;2.00;;;25.50;65.20;;;;;;5012858;28;20033;-73
2022/08/04 03:16:18;;;;;;;2.53;1.90;;;25.50;65.30;;;;;;5011795;28;20030;-73
2022/08/04 03:19:06;;;;;;;2.88;1.50;;;25.40;65.20;;;;;;5011733;28;20393;-74
2022/08/04 03:21:50;;;;;;;3.65;2.00;;;25.40;65.20;;;;;;5013108;28;20030;-74
2022/08/04 03:24:56;;;;;;;6.15;2.13;;;25.40;65.30;;;;;;5012872;28;20108;-74
2022/08/04 03:27:52;;;;;;;3.50;1.80;;;25.40;65.20;;;;;;5011592;28;20030;-74
2022/08/04 03:30:19;;;;;;;2.80;1.83;;;25.40;65.40;;;;;;5012696;28;20546;-74
2022/08/04 03:33:03;;;;;;;4.03;2.10;;;25.40;65.50;;;;;;5011580;28;20026;-74
2022/08/04 03:35:28;;;;;;;5.15;2.03;;;25.40;65.40;;;;;;5012801;28;20033;-74
2022/08/04 03:38:18;;;;;;;4.38;1.92;;;25.40;65.50;;;;;;5012746;28;20026;-74
2022/08/04 03:40:52;;;;;;;3.15;2.17;;;25.40;65.40;;;;;;5012635;28;20064;-74
2022/08/04 03:43:46;;;;;;;5.05;1.75;;;25.40;65.40;;;;;;5012682;28;20030;-74
2022/08/04 03:46:26;;;;;;;2.90;1.80;;;25.40;65.40;;;;;;5011591;28;20025;-74
2022/08/04 03:49:16;;;;;;;4.00;1.70;;;25.40;65.50;;;;;;5012641;28;20053;-74
2022/08/04 03:55:14;;;;;;;2.85;1.60;;;25.50;65.60;;;;;;5026396;28;20527;-74
2022/08/04 03:57:52;;;;;;;3.22;1.60;;;25.40;65.50;;;;;;5035335;28;20036;-74
2022/08/04 04:00:18;;;;;;;5.65;1.90;;;25.40;65.50;;;;;;5036225;28;20030;-74
2022/08/04 04:02:54;;;;;;;3.25;1.80;;;25.40;65.50;;;;;;5017915;28;20018;-74
2022/08/04 04:05:29;;;;;;;2.05;1.80;;;25.40;65.50;;;;;;5015308;28;20488;-74
2022/08/04 04:08:16;;;;;;;2.40;1.80;;;25.40;65.60;;;;;;5016461;28;20160;-74
2022/08/04 04:10:56;;;;;;;2.50;1.65;;;25.40;65.30;;;;;;5015290;28;20030;-74
2022/08/04 04:13:45;;;;;;;2.22;1.58;;;25.40;65.40;;;;;;5016217;28;20510;-74
2022/08/04 04:16:38;;;;;;;3.17;1.63;;;25.40;65.50;;;;;;5016092;28;20030;-74
2022/08/04 04:19:13;;;;;;;2.00;1.55;;;25.40;65.40;;;;;;5016190;28;20026;-74
2022/08/04 04:22:12;;;;;;;2.13;1.70;;;25.40;65.60;;;;;;5015933;28;20025;-74
2022/08/04 04:24:41;;;;;;;1.67;1.50;;;25.40;65.30;;;;;;5016156;28;20052;-74
2022/08/04 04:27:23;;;;;;;3.03;1.70;;;25.40;65.50;;;;;;5016157;28;20101;-74
2022/08/04 04:30:20;;;;;;;4.28;1.40;;;25.40;65.60;;;;;;5014550;28;20484;-74
2022/08/04 04:33:33;;;;;;;3.08;1.92;;;25.40;65.50;;;;;;5014905;28;20022;-73
2022/08/04 04:36:12;;;;;;;2.28;1.55;;;25.30;65.20;;;;;;5013730;28;20401;-74
2022/08/04 04:38:57;;;;;;;2.45;1.75;;;25.40;65.60;;;;;;5014610;28;20025;-74
2022/08/04 04:41:23;;;;;;;5.68;1.70;;;25.40;65.50;;;;;;5014633;28;20030;-74
2022/08/04 04:44:16;;;;;;;2.83;1.75;;;25.30;65.60;;;;;;5015785;28;20018;-74
2022/08/04 04:46:47;;;;;;;2.75;1.80;;;25.40;65.50;;;;;;5015818;28;20419;-74
2022/08/04 04:49:47;;;;;;;3.80;1.70;;;25.30;65.60;;;;;;5015649;28;20041;-74
2022/08/04 04:52:25;;;;;;;1.13;1.10;;;25.40;65.70;;;;;;5014625;28;20025;-74
2022/08/04 04:54:59;;;;;;;2.30;1.65;;;25.40;65.80;;;;;;5024850;28;20100;-73
2022/08/04 04:57:25;;;;;;;3.05;1.65;;;25.40;65.80;;;;;;5018560;28;20025;-74
2022/08/04 05:00:11;;;;;;;2.03;1.45;;;25.40;65.90;;;;;;5017236;28;20027;-74
2022/08/04 05:02:54;;;;;;;3.13;1.50;;;25.40;65.70;;;;;;5035008;28;20026;-74
2022/08/04 05:05:42;;;;;;;3.70;1.70;;;25.30;65.60;;;;;;5034170;28;20143;-74
2022/08/04 05:08:32;;;;;;;2.63;1.70;;;25.40;65.80;;;;;;5034152;28;20029;-73
2022/08/04 05:11:13;;;;;;;3.85;1.80;;;25.30;65.60;;;;;;5034997;28;20101;-73
2022/08/04 05:13:52;;;;;;;1.90;1.42;;;25.30;65.70;;;;;;5034705;28;20030;-74
2022/08/04 05:16:23;;;;;;;1.77;1.67;;;25.40;65.80;;;;;;5033755;28;20487;-74
2022/08/04 05:19:12;;;;;;;3.63;1.98;;;25.30;65.80;;;;;;5033832;28;20104;-74
2022/08/04 05:22:03;;;;;;;2.97;1.73;;;25.30;65.70;;;;;;5033686;28;20022;-74
2022/08/04 05:24:29;;;;;;;2.40;1.60;;;25.30;65.70;;;;;;5033525;28;20622;-73
2022/08/04 05:26:57;;;;;;;2.13;1.40;;;25.40;65.90;;;;;;5033571;28;20399;-74
2022/08/04 05:29:34;;;;;;;1.67;1.38;;;25.30;65.80;;;;;;5033119;28;20055;-74
2022/08/04 05:32:01;;;;;;;1.92;1.58;;;25.40;65.80;;;;;;5033461;28;20032;-74
2022/08/04 05:34:29;;;;;;;3.22;1.77;;;25.40;65.80;;;;;;5033144;28;20113;-74
2022/08/04 05:37:00;;;;;;;4.63;1.60;;;25.30;65.70;;;;;;5033421;28;20025;-74
2022/08/04 05:39:28;;;;;;;2.30;1.65;;;25.40;65.80;;;;;;5033391;28;20017;-74
2022/08/04 05:41:54;;;;;;;3.20;1.50;;;25.30;65.70;;;;;;5033240;28;20018;-73
2022/08/04 05:44:20;;;;;;;1.98;1.40;;;25.40;65.80;;;;;;5032811;28;20095;-74
2022/08/04 05:46:49;;;;;;;2.60;1.50;;;25.30;65.60;;;;;;5033225;28;20027;-74
2022/08/04 05:49:14;;;;;;;3.00;1.55;;;25.30;65.70;;;;;;5033158;28;20095;-73
2022/08/04 05:51:40;;;;;;;5.55;1.70;;;25.30;65.70;;;;;;5033149;28;20488;-74
2022/08/04 05:54:05;;;;;;;2.25;1.58;;;25.30;65.60;;;;;;5032857;28;20546;-73
2022/08/04 05:56:32;;;;;;;2.53;1.55;;;25.30;65.70;;;;;;5032722;28;20052;-74
2022/08/04 05:58:58;;;;;;;2.38;1.58;;;25.30;65.70;;;;;;5034095;28;20018;-74
2022/08/04 06:01:24;;;;;;;4.18;1.50;;;25.30;65.70;;;;;;5032955;28;20030;-74
2022/08/04 06:03:49;;;;;;;5.00;1.67;;;25.30;65.80;;;;;;5032941;28;20040;-74
2022/08/04 06:06:16;;;;;;;1.95;1.40;;;25.30;65.80;;;;;;5032847;28;20029;-74
2022/08/04 06:08:42;;;;;;;1.65;1.40;;;25.30;65.80;;;;;;5032773;28;20021;-74
2022/08/04 06:11:08;;;;;;;3.70;1.40;;;25.30;65.70;;;;;;5033531;28;20022;-74
2022/08/04 06:13:42;;;;;;;2.00;1.38;;;25.30;65.80;;;;;;5032780;28;20049;-73
2022/08/04 06:16:08;;;;;;;2.42;1.50;;;25.30;65.80;;;;;;5032595;28;20030;-73
2022/08/04 06:18:35;;;;;;;3.00;1.60;;;25.30;65.70;;;;;;5032470;28;20426;-73
2022/08/04 06:21:01;;;;;;;2.47;1.20;;;25.30;65.80;;;;;;5032577;28;20017;-75
2022/08/04 06:23:27;;;;;;;1.75;1.00;;;25.30;64.90;;;;;;5032265;28;20048;-74
2022/08/04 06:25:55;;;;;;;4.75;1.25;;;25.30;63.60;;;;;;5047170;28;20104;-74
2022/08/04 06:28:21;;;;;;;2.78;1.20;;;25.20;63.30;;;;;;5062113;28;20045;-74
2022/08/04 06:30:48;;;;;;;1.48;1.20;;;25.20;63.30;;;;;;5047377;28;20023;-74
2022/08/04 06:33:32;;;;;;;1.90;1.15;;;25.20;63.40;;;;;;5063485;28;20021;-74
2022/08/04 06:35:58;;;;;;;3.97;1.70;;;25.20;63.30;;;;;;5043892;28;20021;-75
2022/08/04 06:38:24;;;;;;;3.13;1.48;;;25.10;63.20;;;;;;5064117;28;20037;-75
2022/08/04 06:40:50;;;;;;;7.93;2.90;;;25.10;63.10;;;;;;5063987;28;20026;-74
2022/08/04 06:43:16;;;;;;;20.08;5.25;;;25.10;63.20;;;;;;5064498;28;20040;-74
2022/08/04 06:45:41;;;;;;;9.77;3.08;;;25.10;63.30;;;;;;5047651;28;20095;-74
2022/08/04 06:48:07;;;;;;;5.40;1.98;;;25.10;63.20;;;;;;5064587;28;20029;-74
2022/08/04 06:50:34;;;;;;;5.90;2.10;;;25.10;63.00;;;;;;5047654;28;20064;-74
2022/08/04 06:52:59;;;;;;;9.82;2.50;;;25.10;62.90;;;;;;5047746;28;20020;-74
2022/08/04 06:55:25;;;;;;;5.82;2.25;;;25.10;62.90;;;;;;5032754;28;20025;-74
2022/08/04 06:57:51;;;;;;;7.53;2.60;;;25.10;63.00;;;;;;5032963;28;20100;-74
2022/08/04 07:00:16;;;;;;;6.10;2.22;;;25.10;62.90;;;;;;5031844;28;20399;-74
2022/08/04 07:02:51;;;;;;;8.30;2.65;;;25.10;62.90;;;;;;5015190;28;20029;-74
2022/08/04 07:05:17;;;;;;;8.35;2.45;;;25.00;62.80;;;;;;5024252;28;20438;-74
2022/08/04 07:07:43;;;;;;;7.07;2.10;;;25.00;62.80;;;;;;5015690;28;20084;-74
2022/08/04 07:10:08;;;;;;;9.50;2.88;;;25.00;62.70;;;;;;5029849;28;20034;-74
2022/08/04 07:12:34;;;;;;;10.25;3.13;;;25.00;62.70;;;;;;5028224;28;20143;-74
2022/08/04 07:15:00;;;;;;;10.70;2.58;;;25.00;62.70;;;;;;4995232;28;20083;-74
2022/08/04 07:17:26;;;;;;;5.55;2.28;;;25.00;62.60;;;;;;5011947;28;20025;-74
2022/08/04 07:19:52;;;;;;;8.43;2.65;;;25.00;62.60;;;;;;5011801;28;20021;-74
2022/08/04 07:22:17;;;;;;;8.57;2.80;;;25.00;62.50;;;;;;5024531;28;20017;-74
2022/08/04 07:24:43;;;;;;;10.48;2.40;;;25.00;62.70;;;;;;5031186;28;20040;-74
2022/08/04 07:27:09;;;;;;;12.40;2.80;;;25.00;62.60;;;;;;5032000;28;20488;-74
2022/08/04 07:29:34;;;;;;;9.80;2.65;;;24.90;62.40;;;;;;5031200;28;20072;-74
2022/08/04 07:32:00;;;;;;;8.95;2.60;;;24.90;62.30;;;;;;5031438;28;20021;-74
2022/08/04 07:34:26;;;;;;;9.82;2.67;;;24.90;62.30;;;;;;5030976;28;20402;-74
2022/08/04 07:36:52;;;;;;;7.85;2.80;;;24.90;62.10;;;;;;5031381;28;20083;-74
2022/08/04 07:39:20;;;;;;;7.65;2.88;;;24.90;62.30;;;;;;5032347;28;20099;-75
2022/08/04 07:41:45;;;;;;;8.35;2.95;;;24.90;62.00;;;;;;5031130;28;20021;-75
2022/08/04 07:44:12;;;;;;;9.82;2.78;;;24.90;62.10;;;;;;5031256;28;20080;-74
2022/08/04 07:46:38;;;;;;;7.82;2.63;;;24.90;62.10;;;;;;5031173;28;20028;-74
2022/08/04 07:49:04;;;;;;;10.57;3.08;;;24.90;62.20;;;;;;5031301;28;20104;-74
2022/08/04 07:51:30;;;;;;;7.40;2.38;;;24.90;62.10;;;;;;5031118;28;20022;-74
2022/08/04 07:53:56;;;;;;;5.25;2.30;;;24.90;62.20;;;;;;5030720;28;20071;-74
2022/08/04 07:56:21;;;;;;;11.95;3.35;;;24.90;62.20;;;;;;5014764;28;20014;-74
2022/08/04 07:58:47;;;;;;;6.60;2.55;;;24.90;62.20;;;;;;5031131;28;20036;-74
2022/08/04 08:01:13;;;;;;;7.40;2.47;;;24.90;62.20;;;;;;5032313;28;20017;-74
2022/08/04 08:03:38;;;;;;;6.40;2.50;;;24.90;62.20;;;;;;5014601;28;20080;-74
2022/08/04 08:06:04;;;;;;;8.13;2.85;;;24.90;62.30;;;;;;5014673;28;20424;-74
2022/08/04 08:08:30;;;;;;;8.77;2.67;;;24.90;62.30;;;;;;5030849;28;20063;-74
2022/08/04 08:10:55;;;;;;;6.38;2.42;;;24.90;62.50;;;;;;5030877;28;20167;-74
2022/08/04 08:13:21;;;;;;;8.60;2.20;;;24.80;62.40;;;;;;5030818;28;20038;-74
2022/08/04 08:15:47;;;;;;;8.68;2.90;;;24.80;62.40;;;;;;5030950;28;20032;-74
2022/08/04 08:18:12;;;;;;;10.43;2.58;;;24.80;62.50;;;;;;5031056;28;20022;-74
2022/08/04 08:20:38;;;;;;;8.57;2.83;;;24.90;62.30;;;;;;5030737;28;20021;-74
2022/08/04 08:23:04;;;;;;;9.90;3.08;;;24.90;62.50;;;;;;5030851;28;20028;-74
2022/08/04 08:25:32;;;;;;;8.43;2.60;;;24.80;62.20;;;;;;5030951;28;20026;-74
2022/08/04 08:27:58;;;;;;;9.38;3.67;;;24.80;62.10;;;;;;5030654;28;20034;-74
2022/08/04 08:30:24;;;;;;;6.68;2.90;;;24.80;62.10;;;;;;5032046;28;20556;-74
2022/08/04 08:32:50;;;;;;;9.98;3.30;;;24.80;62.50;;;;;;5031822;28;20105;-74
2022/08/04 08:35:16;;;;;;;7.65;2.67;;;24.80;62.30;;;;;;5031842;28;20029;-74
2022/08/04 08:37:49;;;;;;;9.57;3.20;;;24.80;62.50;;;;;;5030310;28;20026;-74
2022/08/04 08:40:29;;;;;;;10.02;3.05;;;24.80;62.50;;;;;;5032961;28;20033;-74
2022/08/04 08:43:32;;;;;;;9.75;3.92;;;24.80;62.60;;;;;;5034306;28;20022;-74
2022/08/04 08:46:19;;;;;;;8.57;2.90;;;24.80;62.30;;;;;;5035365;28;20029;-74
2022/08/04 08:48:47;;;;;;;7.28;2.90;;;24.80;62.70;;;;;;5034213;28;20435;-74
2022/08/04 08:51:39;;;;;;;5.00;2.55;;;24.80;62.70;;;;;;5035121;28;20032;-74
2022/08/04 08:54:26;;;;;;;8.10;3.10;;;24.80;62.70;;;;;;5034145;28;20029;-74
2022/08/04 08:57:07;;;;;;;8.50;2.80;;;24.80;62.60;;;;;;5035275;28;20029;-74
2022/08/04 08:59:56;;;;;;;10.45;3.63;;;24.80;62.50;;;;;;5035258;28;20026;-74
2022/08/04 09:02:28;;;;;;;8.38;3.53;;;24.80;62.70;;;;;;5034226;28;20029;-74
2022/08/04 09:05:15;;;;;;;8.43;3.10;;;24.80;62.50;;;;;;5035554;28;20427;-74
2022/08/04 09:07:57;;;;;;;8.45;2.97;;;24.80;62.60;;;;;;5035014;28;20431;-74
2022/08/04 09:10:27;;;;;;;7.50;2.85;;;24.80;62.50;;;;;;5033875;28;20076;-74
2022/08/04 09:13:16;;;;;;;5.50;2.60;;;24.80;62.60;;;;;;5017176;28;20067;-74
2022/08/04 09:16:10;;;;;;;8.40;3.17;;;24.80;62.40;;;;;;5033565;28;20025;-74
2022/08/04 09:18:47;;;;;;;7.78;2.63;;;24.70;62.30;;;;;;5034944;28;20178;-74
2022/08/04 09:21:40;;;;;;;8.43;2.85;;;24.80;62.30;;;;;;5033493;28;20415;-74
2022/08/04 09:24:43;;;;;;;9.05;2.97;;;24.70;61.90;;;;;;5034717;28;20025;-74
2022/08/04 09:27:27;;;;;;;6.53;2.53;;;24.70;62.20;;;;;;5034682;28;20026;-74
2022/08/04 09:30:04;;;;;;;6.63;2.85;;;24.70;61.50;;;;;;5033317;28;20045;-74
2022/08/04 09:32:48;;;;;;;4.65;2.33;;;24.70;61.90;;;;;;5033574;28;20434;-74
2022/08/04 09:36:07;;;;;;;7.93;2.50;;;24.70;62.30;;;;;;5034364;28;20025;-74
2022/08/04 09:38:39;;;;;;;5.25;2.30;;;24.70;62.00;;;;;;5012526;28;20038;-74
2022/08/04 09:41:14;;;;;;;7.07;2.90;;;24.70;62.00;;;;;;5012613;28;20037;-74
2022/08/04 09:43:42;;;;;;;4.72;2.30;;;24.70;62.20;;;;;;5012489;28;20253;-74
2022/08/04 09:46:27;;;;;;;4.82;2.20;;;24.70;61.70;;;;;;5012521;28;20176;-74
2022/08/04 09:49:03;;;;;;;7.18;2.58;;;24.70;61.50;;;;;;4998233;28;20040;-74
2022/08/04 09:51:37;;;;;;;6.10;2.28;;;24.70;61.70;;;;;;4979765;28;20045;-74
2022/08/04 09:54:27;;;;;;;6.95;2.55;;;24.60;61.30;;;;;;4996153;28;20527;-74
2022/08/04 09:57:15;;;;;;;4.35;2.13;;;24.70;61.30;;;;;;4998773;28;20022;-74
2022/08/04 09:59:56;;;;;;;5.88;2.47;;;24.70;61.30;;;;;;4996106;28;20033;-74
2022/08/04 10:02:22;;;;;;;6.00;2.03;;;24.70;61.60;;;;;;4995945;28;20033;-74
2022/08/04 10:04:48;;;;;;;7.22;2.58;;;24.70;61.30;;;;;;4979550;28;20444;-74
2022/08/04 10:07:32;;;;;;;7.53;2.35;;;24.60;61.30;;;;;;5012022;28;20037;-74
2022/08/04 10:10:34;;;;;;;6.03;2.97;;;24.70;61.20;;;;;;5012081;28;20030;-74
2022/08/04 10:13:14;;;;;;;4.55;2.10;;;24.60;61.40;;;;;;5029569;28;20033;-74
2022/08/04 10:15:52;;;;;;;5.45;1.90;;;24.60;61.10;;;;;;5032651;28;20029;-74
2022/08/04 10:18:44;;;;;;;6.25;2.30;;;24.60;61.40;;;;;;5033808;28;20025;-74
2022/08/04 10:21:37;;;;;;;5.93;2.30;;;24.60;61.10;;;;;;5033674;28;20039;-74
2022/08/04 10:24:30;;;;;;;6.97;2.67;;;24.60;61.10;;;;;;5032264;28;20033;-74
2022/08/04 10:27:01;;;;;;;5.35;2.45;;;24.60;61.30;;;;;;5033525;28;20028;-74
2022/08/04 10:29:40;;;;;;;5.78;2.10;;;24.60;61.80;;;;;;5032459;28;20083;-74
2022/08/04 10:32:07;;;;;;;5.13;2.10;;;24.60;61.40;;;;;;5032177;28;20017;-74
2022/08/04 10:34:42;;;;;;;7.32;2.67;;;24.60;61.20;;;;;;5032120;28;20072;-74
2022/08/04 10:37:23;;;;;;;5.15;2.08;;;24.60;61.40;;;;;;5032188;28;20021;-74
2022/08/04 10:43:01;;;;;;;4.55;1.92;;;24.60;61.10;;;;;;5032593;28;20510;-74
2022/08/04 10:45:32;;;;;;;4.40;1.90;;;24.60;61.50;;;;;;5032159;28;20029;-74
2022/08/04 10:48:06;;;;;;;4.88;1.90;;;24.60;61.30;;;;;;5031629;28;20029;-75
2022/08/04 10:50:35;;;;;;;2.85;1.60;;;24.60;61.40;;;;;;5032200;28;20030;-74
2022/08/04 10:53:05;;;;;;;4.18;2.05;;;24.60;61.00;;;;;;5031896;28;20021;-74
2022/08/04 10:55:34;;;;;;;4.05;2.00;;;24.60;60.90;;;;;;5031941;28;20578;-74
2022/08/04 10:58:01;;;;;;;5.78;2.30;;;24.60;60.80;;;;;;5031639;28;20491;-74
2022/08/04 11:00:28;;;;;;;5.75;1.70;;;24.60;61.00;;;;;;5031875;28;20025;-74
2022/08/04 11:02:59;;;;;;;5.20;2.00;;;24.60;61.00;;;;;;5031001;28;20048;-74
2022/08/04 11:05:44;;;;;;;4.43;2.00;;;24.60;61.20;;;;;;5033088;28;20029;-74
2022/08/04 11:08:34;;;;;;;4.28;1.80;;;24.60;61.20;;;;;;5033104;28;20087;-74
2022/08/04 11:11:02;;;;;;;2.53;1.65;;;24.60;61.10;;;;;;5031594;28;20033;-74
2022/08/04 11:13:39;;;;;;;3.72;1.77;;;24.60;61.20;;;;;;5020082;28;20057;-74
2022/08/04 11:16:08;;;;;;;6.88;2.08;;;24.60;60.90;;;;;;5011766;28;20026;-74
2022/08/04 11:19:05;;;;;;;3.80;1.83;;;24.60;60.80;;;;;;4995524;28;20448;-74
2022/08/04 11:21:32;;;;;;;3.88;1.58;;;24.60;60.70;;;;;;5012965;28;20064;-74
2022/08/04 11:24:10;;;;;;;4.50;1.77;;;24.60;60.70;;;;;;5011606;28;20400;-74
2022/08/04 11:27:00;;;;;;;3.60;1.42;;;24.60;60.60;;;;;;5011711;28;20026;-74
2022/08/04 11:29:35;;;;;;;3.72;1.80;;;24.60;60.80;;;;;;5011724;28;20049;-74
2022/08/04 11:32:02;;;;;;;2.72;1.55;;;24.60;60.90;;;;;;5011449;28;20370;-74
2022/08/04 11:34:27;;;;;;;4.32;1.70;;;24.60;61.10;;;;;;5011494;28;20037;-74
2022/08/04 11:37:11;;;;;;;2.78;1.70;;;24.60;61.10;;;;;;5013008;28;20026;-74
2022/08/04 11:39:42;;;;;;;3.80;1.52;;;24.60;61.00;;;;;;5012986;28;20014;-74
2022/08/04 11:42:13;;;;;;;2.85;1.55;;;24.60;60.80;;;;;;5011495;28;20064;-74
2022/08/04 11:44:50;;;;;;;4.30;1.70;;;24.60;60.90;;;;;;5012640;28;20018;-74
2022/08/04 11:47:38;;;;;;;3.78;1.67;;;24.60;60.80;;;;;;5011462;28;20065;-74
2022/08/04 11:50:31;;;;;;;4.07;1.60;;;24.60;60.70;;;;;;5011755;28;20022;-74
2022/08/04 11:52:57;;;;;;;2.88;1.52;;;24.60;61.70;;;;;;5011391;28;20021;-74
2022/08/04 11:55:24;;;;;;;3.65;2.00;;;24.60;60.80;;;;;;5026315;28;20562;-74
2022/08/04 11:57:50;;;;;;;2.65;1.65;;;24.60;60.90;;;;;;5031062;28;20021;-74
2022/08/04 12:00:16;;;;;;;3.17;1.55;;;24.60;60.90;;;;;;5030819;28;20014;-74
2022/08/04 12:02:57;;;;;;;3.80;1.60;;;24.60;61.20;;;;;;5031049;28;20029;-74
2022/08/04 12:06:02;;;;;;;4.78;1.25;;;24.60;61.00;;;;;;5032239;28;20411;-74
2022/08/04 12:08:51;;;;;;;3.45;1.40;;;24.60;60.90;;;;;;5032098;28;20057;-74
2022/08/04 12:11:55;;;;;;;2.55;1.42;;;24.60;60.80;;;;;;5032159;28;20503;-74
2022/08/04 12:14:27;;;;;;;2.92;1.40;;;24.60;60.80;;;;;;5013459;28;20025;-74
2022/08/04 12:17:00;;;;;;;2.13;1.20;;;24.50;60.90;;;;;;5015182;28;20022;-74
2022/08/04 12:19:35;;;;;;;1.67;1.23;;;24.60;61.10;;;;;;5015281;28;20429;-74
2022/08/04 12:22:04;;;;;;;3.75;1.45;;;24.50;61.00;;;;;;5014994;28;20550;-74
2022/08/04 12:24:43;;;;;;;3.45;1.40;;;24.60;61.00;;;;;;5016033;28;20052;-74
2022/08/04 12:27:16;;;;;;;4.22;1.55;;;24.50;61.00;;;;;;5014935;28;20026;-74
2022/08/04 12:29:41;;;;;;;;;;;24.60;60.90;;;;;;5016321;28;20046;-74
2022/08/04 12:32:40;;;;;;;1.80;1.15;;;24.50;60.70;;;;;;5014774;28;20338;-74
2022/08/04 12:35:26;;;;;;;2.95;1.40;;;24.60;60.80;;;;;;5014513;28;20514;-74
2022/08/04 12:38:03;;;;;;;4.82;1.70;;;24.50;60.90;;;;;;5014805;28;20026;-74
2022/08/04 12:40:44;;;;;;;2.95;1.33;;;24.60;60.80;;;;;;5014855;28;20506;-74
2022/08/04 12:43:26;;;;;;;4.33;1.60;;;24.50;61.00;;;;;;5014178;28;20026;-74
2022/08/04 12:45:54;;;;;;;2.75;1.27;;;24.50;61.20;;;;;;5014730;28;20026;-74
2022/08/04 12:48:21;;;;;;;2.78;1.27;;;24.60;61.50;;;;;;5014567;28;20048;-74
2022/08/04 12:50:53;;;;;;;1.58;1.00;;;24.60;61.50;;;;;;5014647;28;20131;-74
2022/08/04 12:53:20;;;;;;;3.28;1.67;;;24.60;61.60;;;;;;5014459;28;20025;-74
2022/08/04 12:55:47;;;;;;;2.35;1.25;;;24.60;61.50;;;;;;5032291;28;20029;-74
2022/08/04 12:58:24;;;;;;;3.17;1.40;;;24.50;61.50;;;;;;5034018;28;20010;-74
2022/08/04 13:00:57;;;;;;;2.55;1.13;;;24.60;61.40;;;;;;5034213;28;20100;-74
2022/08/04 13:03:27;;;;;;;2.65;1.27;;;24.60;61.40;;;;;;5034007;28;20104;-74
2022/08/04 13:05:54;;;;;;;2.83;1.20;;;24.60;61.20;;;;;;5034003;28;20021;-74
2022/08/04 13:08:20;;;;;;;2.78;1.25;;;24.50;61.30;;;;;;5034008;28;20068;-74
2022/08/04 13:10:46;;;;;;;1.85;1.38;;;24.60;61.00;;;;;;5017499;28;20029;-74
2022/08/04 13:13:20;;;;;;;2.28;1.13;;;24.60;60.70;;;;;;5022929;28;20026;-74
2022/08/04 13:15:56;;;;;;;3.55;1.30;;;24.50;60.90;;;;;;5014035;28;20080;-74
2022/08/04 13:18:21;;;;;;;2.53;1.30;;;24.60;61.10;;;;;;5013864;28;20485;-74
2022/08/04 13:20:47;;;;;;;3.33;1.15;;;24.50;61.00;;;;;;5014045;28;20026;-74
2022/08/04 13:23:17;;;;;;;2.05;1.23;;;24.60;61.30;;;;;;5013746;28;20018;-74
2022/08/04 13:25:44;;;;;;;3.20;1.00;;;24.60;61.10;;;;;;5013094;28;20083;-74
2022/08/04 13:28:15;;;;;;;1.70;1.27;;;24.60;61.20;;;;;;5013535;28;20038;-74
2022/08/04 13:30:44;;;;;;;3.45;1.02;;;24.60;61.30;;;;;;5013772;28;20399;-74
2022/08/04 13:33:09;;;;;;;1.75;1.08;;;24.60;61.40;;;;;;5013527;28;20030;-74